KTCC/TCC METAR and TAF weather

Enter ICAO airport designator
Station Type Date Time Source
KTCC METAR 2019/11/18 13:53 UTC NOAA

KTCC 181353Z AUTO 28009KT 10SM CLR 04/M02 A2997 RMK AO2 SLP144 T00441017


Station Type Date Time Source
KTCC Decoded METAR 2019/11/18 13:53 UTC NOAA

TUCUMCARI MUNICIPAL AIRPORT , NM, United States (KTCC) 35-11N 103-36W 1235M
Nov 18, 2019 - 08:53 AM EST / 2019.11.18 1353 UTC
Wind: from the W (280 degrees) at 10 MPH (9 KT):0
Visibility: 10 mile(s):0
Sky conditions: clear
Temperature: 39.9 F (4.4 C)
Dew Point: 28.9 F (-1.7 C)
Relative Humidity: 64%
Pressure (altimeter): 29.97 in. Hg (1014 hPa)
ob: KTCC 181353Z AUTO 28009KT 10SM CLR 04/M02 A2997 RMK AO2 SLP144 T00441017
cycle: 14

Station Type Date Time Source
KTCC TAF 2019/11/18 12:42 UTC NOAA

TAF KTCC 181140Z 1812/1912 32006KT P6SM SCT250
FM181700 02008KT P6SM SCT250
FM182000 06008KT P6SM SCT250
FM190000 11006KT P6SM SCT250
FM190600 22007KT P6SM SKC

Example: see airport list